sensor_id;sensor_type;location;lat;lon;timestamp;temperature;humidity
3330;DHT22;1677;49.576;10.990;2023-04-10T00:01:18;6.10;99.90
3330;DHT22;1677;49.576;10.990;2023-04-10T00:03:44;6.10;99.90
3330;DHT22;1677;49.576;10.990;2023-04-10T00:06:10;6.30;99.90
3330;DHT22;1677;49.576;10.990;2023-04-10T00:08:35;6.20;99.90
3330;DHT22;1677;49.576;10.990;2023-04-10T00:11:01;6.10;99.90
3330;DHT22;1677;49.576;10.990;2023-04-10T00:13:27;5.90;99.90
3330;DHT22;1677;49.576;10.990;2023-04-10T00:15:59;5.80;99.90
3330;DHT22;1677;49.576;10.990;2023-04-10T00:18:25;5.80;99.90
3330;DHT22;1677;49.576;10.990;2023-04-10T00:20:51;6.00;99.90
3330;DHT22;1677;49.576;10.990;2023-04-10T00:23:22;5.90;99.90
3330;DHT22;1677;49.576;10.990;2023-04-10T00:25:48;5.70;99.90
3330;DHT22;1677;49.576;10.990;2023-04-10T00:28:14;5.60;99.90
3330;DHT22;1677;49.576;10.990;2023-04-10T00:30:41;5.40;99.90
3330;DHT22;1677;49.576;10.990;2023-04-10T00:33:07;5.30;99.90
3330;DHT22;1677;49.576;10.990;2023-04-10T00:35:32;5.30;99.90
3330;DHT22;1677;49.576;10.990;2023-04-10T00:37:58;5.40;99.90
3330;DHT22;1677;49.576;10.990;2023-04-10T00:40:23;5.40;99.90
3330;DHT22;1677;49.576;10.990;2023-04-10T00:42:50;5.30;99.90
3330;DHT22;1677;49.576;10.990;2023-04-10T00:45:15;5.30;99.90
3330;DHT22;1677;49.576;10.990;2023-04-10T00:47:41;5.20;99.90
3330;DHT22;1677;49.576;10.990;2023-04-10T00:50:07;5.10;99.90
3330;DHT22;1677;49.576;10.990;2023-04-10T00:52:32;5.10;99.90
3330;DHT22;1677;49.576;10.990;2023-04-10T00:54:58;5.10;99.90
3330;DHT22;1677;49.576;10.990;2023-04-10T00:57:24;5.10;99.90
3330;DHT22;1677;49.576;10.990;2023-04-10T00:59:51;5.00;99.90
3330;DHT22;1677;49.576;10.990;2023-04-10T01:02:17;5.10;99.90
3330;DHT22;1677;49.576;10.990;2023-04-10T01:04:44;5.50;99.90
3330;DHT22;1677;49.576;10.990;2023-04-10T01:10:14;5.20;99.90
3330;DHT22;1677;49.576;10.990;2023-04-10T01:15:49;5.00;99.90
3330;DHT22;1677;49.576;10.990;2023-04-10T01:21:27;5.10;99.90
3330;DHT22;1677;49.576;10.990;2023-04-10T01:24:19;5.20;99.90
3330;DHT22;1677;49.576;10.990;2023-04-10T01:27:03;5.20;99.90
3330;DHT22;1677;49.576;10.990;2023-04-10T01:29:33;5.00;99.90
3330;DHT22;1677;49.576;10.990;2023-04-10T01:32:08;4.90;99.90
3330;DHT22;1677;49.576;10.990;2023-04-10T01:34:39;4.80;99.90
3330;DHT22;1677;49.576;10.990;2023-04-10T01:37:18;4.90;99.90
3330;DHT22;1677;49.576;10.990;2023-04-10T01:39:49;4.80;99.90
3330;DHT22;1677;49.576;10.990;2023-04-10T01:42:17;4.60;99.90
3330;DHT22;1677;49.576;10.990;2023-04-10T01:44:45;4.50;99.90
3330;DHT22;1677;49.576;10.990;2023-04-10T01:47:13;4.50;99.90
3330;DHT22;1677;49.576;10.990;2023-04-10T01:49:40;4.50;99.90
3330;DHT22;1677;49.576;10.990;2023-04-10T01:52:13;4.50;99.90
3330;DHT22;1677;49.576;10.990;2023-04-10T01:54:39;4.50;99.90
3330;DHT22;1677;49.576;10.990;2023-04-10T01:57:05;4.40;99.90
3330;DHT22;1677;49.576;10.990;2023-04-10T01:59:30;4.30;99.90
3330;DHT22;1677;49.576;10.990;2023-04-10T02:01:57;4.30;99.90
3330;DHT22;1677;49.576;10.990;2023-04-10T02:04:23;4.40;99.90
3330;DHT22;1677;49.576;10.990;2023-04-10T02:07:03;4.60;99.90
3330;DHT22;1677;49.576;10.990;2023-04-10T02:12:20;4.80;99.90
3330;DHT22;1677;49.576;10.990;2023-04-10T02:14:48;4.90;99.90
3330;DHT22;1677;49.576;10.990;2023-04-10T02:17:25;4.90;99.90
3330;DHT22;1677;49.576;10.990;2023-04-10T02:19:52;4.60;99.90
3330;DHT22;1677;49.576;10.990;2023-04-10T02:22:19;4.50;99.90
3330;DHT22;1677;49.576;10.990;2023-04-10T02:24:45;4.40;99.90
3330;DHT22;1677;49.576;10.990;2023-04-10T02:27:11;4.30;99.90
3330;DHT22;1677;49.576;10.990;2023-04-10T02:29:36;4.20;99.90
3330;DHT22;1677;49.576;10.990;2023-04-10T02:32:03;4.10;99.90
3330;DHT22;1677;49.576;10.990;2023-04-10T02:34:28;4.10;99.90
3330;DHT22;1677;49.576;10.990;2023-04-10T02:36:54;4.20;99.90
3330;DHT22;1677;49.576;10.990;2023-04-10T02:39:19;4.30;99.90
3330;DHT22;1677;49.576;10.990;2023-04-10T02:41:45;4.10;99.90
3330;DHT22;1677;49.576;10.990;2023-04-10T02:44:11;4.00;99.90
3330;DHT22;1677;49.576;10.990;2023-04-10T02:46:37;4.10;99.90
3330;DHT22;1677;49.576;10.990;2023-04-10T02:49:02;4.20;99.90
3330;DHT22;1677;49.576;10.990;2023-04-10T02:51:28;4.50;99.90
3330;DHT22;1677;49.576;10.990;2023-04-10T02:53:53;4.70;99.90
3330;DHT22;1677;49.576;10.990;2023-04-10T02:56:19;4.90;99.90
3330;DHT22;1677;49.576;10.990;2023-04-10T02:58:45;5.00;99.90
3330;DHT22;1677;49.576;10.990;2023-04-10T03:01:12;4.90;99.90
3330;DHT22;1677;49.576;10.990;2023-04-10T03:03:38;4.90;99.90
3330;DHT22;1677;49.576;10.990;2023-04-10T03:06:03;4.80;99.90
3330;DHT22;1677;49.576;10.990;2023-04-10T03:08:29;4.80;99.90
3330;DHT22;1677;49.576;10.990;2023-04-10T03:10:55;4.70;99.90
3330;DHT22;1677;49.576;10.990;2023-04-10T03:13:20;4.50;99.90
3330;DHT22;1677;49.576;10.990;2023-04-10T03:15:47;4.30;99.90
3330;DHT22;1677;49.576;10.990;2023-04-10T03:18:13;4.00;99.90
3330;DHT22;1677;49.576;10.990;2023-04-10T03:20:39;3.90;99.90
3330;DHT22;1677;49.576;10.990;2023-04-10T03:23:05;3.90;99.90
3330;DHT22;1677;49.576;10.990;2023-04-10T03:25:33;4.10;99.90
3330;DHT22;1677;49.576;10.990;2023-04-10T03:27:58;4.00;99.90
3330;DHT22;1677;49.576;10.990;2023-04-10T03:30:24;3.90;99.90
3330;DHT22;1677;49.576;10.990;2023-04-10T03:32:50;3.70;99.90
3330;DHT22;1677;49.576;10.990;2023-04-10T03:35:16;3.60;99.90
3330;DHT22;1677;49.576;10.990;2023-04-10T03:37:41;3.40;99.90
3330;DHT22;1677;49.576;10.990;2023-04-10T03:40:08;3.30;99.90
3330;DHT22;1677;49.576;10.990;2023-04-10T03:42:34;3.10;99.90
3330;DHT22;1677;49.576;10.990;2023-04-10T03:45:00;3.10;99.90
3330;DHT22;1677;49.576;10.990;2023-04-10T03:47:29;3.30;99.90
3330;DHT22;1677;49.576;10.990;2023-04-10T03:49:55;3.40;99.90
3330;DHT22;1677;49.576;10.990;2023-04-10T03:52:20;3.20;99.90
3330;DHT22;1677;49.576;10.990;2023-04-10T03:54:47;3.20;99.90
3330;DHT22;1677;49.576;10.990;2023-04-10T03:57:12;3.10;99.90
3330;DHT22;1677;49.576;10.990;2023-04-10T03:59:38;3.10;99.90
3330;DHT22;1677;49.576;10.990;2023-04-10T04:02:03;3.10;99.90
3330;DHT22;1677;49.576;10.990;2023-04-10T04:04:29;3.10;99.90
3330;DHT22;1677;49.576;10.990;2023-04-10T04:06:55;3.10;99.90
3330;DHT22;1677;49.576;10.990;2023-04-10T04:09:21;3.20;99.90
3330;DHT22;1677;49.576;10.990;2023-04-10T04:11:47;3.10;99.90
3330;DHT22;1677;49.576;10.990;2023-04-10T04:14:12;3.10;99.90
3330;DHT22;1677;49.576;10.990;2023-04-10T04:16:38;3.00;99.90
3330;DHT22;1677;49.576;10.990;2023-04-10T04:19:03;3.00;99.90
3330;DHT22;1677;49.576;10.990;2023-04-10T04:21:29;3.00;99.90
3330;DHT22;1677;49.576;10.990;2023-04-10T04:23:55;3.00;99.90
3330;DHT22;1677;49.576;10.990;2023-04-10T04:26:21;3.00;99.90
3330;DHT22;1677;49.576;10.990;2023-04-10T04:28:47;2.90;99.90
3330;DHT22;1677;49.576;10.990;2023-04-10T04:31:12;2.80;99.90
3330;DHT22;1677;49.576;10.990;2023-04-10T04:33:38;2.90;99.90
3330;DHT22;1677;49.576;10.990;2023-04-10T04:36:04;2.90;99.90
3330;DHT22;1677;49.576;10.990;2023-04-10T04:38:29;2.90;99.90
3330;DHT22;1677;49.576;10.990;2023-04-10T04:40:55;3.00;99.90
3330;DHT22;1677;49.576;10.990;2023-04-10T04:43:21;3.00;99.90
3330;DHT22;1677;49.576;10.990;2023-04-10T04:45:46;3.00;99.90
3330;DHT22;1677;49.576;10.990;2023-04-10T04:48:12;3.00;99.90
3330;DHT22;1677;49.576;10.990;2023-04-10T04:50:39;2.90;99.90
3330;DHT22;1677;49.576;10.990;2023-04-10T04:53:05;3.00;99.90
3330;DHT22;1677;49.576;10.990;2023-04-10T04:55:31;2.90;99.90
3330;DHT22;1677;49.576;10.990;2023-04-10T04:57:56;2.90;99.90
3330;DHT22;1677;49.576;10.990;2023-04-10T05:00:22;2.90;99.90
3330;DHT22;1677;49.576;10.990;2023-04-10T05:02:47;3.00;99.90
3330;DHT22;1677;49.576;10.990;2023-04-10T05:05:13;3.20;99.90
3330;DHT22;1677;49.576;10.990;2023-04-10T05:07:39;3.10;99.90
3330;DHT22;1677;49.576;10.990;2023-04-10T05:10:05;3.20;99.90
3330;DHT22;1677;49.576;10.990;2023-04-10T05:12:31;3.30;99.90
3330;DHT22;1677;49.576;10.990;2023-04-10T05:14:56;3.50;99.90
3330;DHT22;1677;49.576;10.990;2023-04-10T05:17:22;3.70;99.90
3330;DHT22;1677;49.576;10.990;2023-04-10T05:19:47;3.70;99.90
3330;DHT22;1677;49.576;10.990;2023-04-10T05:22:13;3.60;99.90
3330;DHT22;1677;49.576;10.990;2023-04-10T05:24:38;3.60;99.90
3330;DHT22;1677;49.576;10.990;2023-04-10T05:27:04;3.60;99.90
3330;DHT22;1677;49.576;10.990;2023-04-10T05:29:30;3.70;99.90
3330;DHT22;1677;49.576;10.990;2023-04-10T05:31:55;3.60;99.90
3330;DHT22;1677;49.576;10.990;2023-04-10T05:34:21;3.60;99.90
3330;DHT22;1677;49.576;10.990;2023-04-10T05:36:46;3.60;99.90
3330;DHT22;1677;49.576;10.990;2023-04-10T05:39:12;3.70;99.90
3330;DHT22;1677;49.576;10.990;2023-04-10T05:41:38;3.90;99.90
3330;DHT22;1677;49.576;10.990;2023-04-10T05:44:03;4.10;99.90
3330;DHT22;1677;49.576;10.990;2023-04-10T05:46:29;4.10;99.90
3330;DHT22;1677;49.576;10.990;2023-04-10T05:48:54;4.20;99.90
3330;DHT22;1677;49.576;10.990;2023-04-10T05:51:20;4.30;99.90
3330;DHT22;1677;49.576;10.990;2023-04-10T05:53:45;4.40;99.90
3330;DHT22;1677;49.576;10.990;2023-04-10T05:56:11;4.50;99.90
3330;DHT22;1677;49.576;10.990;2023-04-10T05:58:36;4.70;99.90
3330;DHT22;1677;49.576;10.990;2023-04-10T06:01:02;4.80;99.90
3330;DHT22;1677;49.576;10.990;2023-04-10T06:03:28;4.90;99.90
3330;DHT22;1677;49.576;10.990;2023-04-10T06:05:55;5.00;99.90
3330;DHT22;1677;49.576;10.990;2023-04-10T06:08:21;5.10;99.90
3330;DHT22;1677;49.576;10.990;2023-04-10T06:10:47;5.40;99.90
3330;DHT22;1677;49.576;10.990;2023-04-10T06:13:13;5.80;99.90
3330;DHT22;1677;49.576;10.990;2023-04-10T06:15:40;6.00;99.90
3330;DHT22;1677;49.576;10.990;2023-04-10T06:18:05;6.00;99.90
3330;DHT22;1677;49.576;10.990;2023-04-10T06:20:31;6.30;99.90
3330;DHT22;1677;49.576;10.990;2023-04-10T06:22:57;6.50;99.90
3330;DHT22;1677;49.576;10.990;2023-04-10T06:25:23;6.70;99.90
3330;DHT22;1677;49.576;10.990;2023-04-10T06:27:49;6.80;99.90
3330;DHT22;1677;49.576;10.990;2023-04-10T06:30:15;7.10;99.90
3330;DHT22;1677;49.576;10.990;2023-04-10T06:32:40;7.40;99.90
3330;DHT22;1677;49.576;10.990;2023-04-10T06:35:06;7.60;99.90
3330;DHT22;1677;49.576;10.990;2023-04-10T06:37:32;7.80;99.90
3330;DHT22;1677;49.576;10.990;2023-04-10T06:40:07;8.00;99.90
3330;DHT22;1677;49.576;10.990;2023-04-10T06:42:34;8.30;99.90
3330;DHT22;1677;49.576;10.990;2023-04-10T06:44:59;8.70;99.90
3330;DHT22;1677;49.576;10.990;2023-04-10T06:47:25;9.20;99.90
3330;DHT22;1677;49.576;10.990;2023-04-10T06:49:51;9.50;99.90
3330;DHT22;1677;49.576;10.990;2023-04-10T06:52:17;9.70;99.90
3330;DHT22;1677;49.576;10.990;2023-04-10T06:54:42;10.00;99.90
3330;DHT22;1677;49.576;10.990;2023-04-10T06:57:08;10.60;99.90
3330;DHT22;1677;49.576;10.990;2023-04-10T06:59:34;11.10;99.90
3330;DHT22;1677;49.576;10.990;2023-04-10T07:02:01;11.50;99.90
3330;DHT22;1677;49.576;10.990;2023-04-10T07:04:26;12.00;99.90
3330;DHT22;1677;49.576;10.990;2023-04-10T07:06:52;12.30;99.90
3330;DHT22;1677;49.576;10.990;2023-04-10T07:09:17;12.90;99.90
3330;DHT22;1677;49.576;10.990;2023-04-10T07:11:43;13.50;99.90
3330;DHT22;1677;49.576;10.990;2023-04-10T07:14:09;14.20;99.90
3330;DHT22;1677;49.576;10.990;2023-04-10T07:16:34;14.70;99.90
3330;DHT22;1677;49.576;10.990;2023-04-10T07:19:00;14.90;97.80
3330;DHT22;1677;49.576;10.990;2023-04-10T07:21:25;15.40;97.40
3330;DHT22;1677;49.576;10.990;2023-04-10T07:23:51;15.90;96.20
3330;DHT22;1677;49.576;10.990;2023-04-10T07:26:17;16.40;94.60
3330;DHT22;1677;49.576;10.990;2023-04-10T07:28:43;16.70;92.70
3330;DHT22;1677;49.576;10.990;2023-04-10T07:31:09;17.30;91.70
3330;DHT22;1677;49.576;10.990;2023-04-10T07:33:35;17.40;90.70
3330;DHT22;1677;49.576;10.990;2023-04-10T07:36:01;18.50;89.80
3330;DHT22;1677;49.576;10.990;2023-04-10T07:38:27;19.10;84.70
3330;DHT22;1677;49.576;10.990;2023-04-10T07:40:59;19.90;80.90
3330;DHT22;1677;49.576;10.990;2023-04-10T07:43:25;20.30;77.10
3330;DHT22;1677;49.576;10.990;2023-04-10T07:45:51;19.50;77.90
3330;DHT22;1677;49.576;10.990;2023-04-10T07:48:17;20.60;76.20
3330;DHT22;1677;49.576;10.990;2023-04-10T07:50:42;21.10;70.10
3330;DHT22;1677;49.576;10.990;2023-04-10T07:53:08;20.90;71.20
3330;DHT22;1677;49.576;10.990;2023-04-10T07:55:41;21.50;68.20
3330;DHT22;1677;49.576;10.990;2023-04-10T07:58:07;21.70;65.30
3330;DHT22;1677;49.576;10.990;2023-04-10T08:00:33;21.60;62.30
3330;DHT22;1677;49.576;10.990;2023-04-10T08:02:59;20.80;59.70
3330;DHT22;1677;49.576;10.990;2023-04-10T08:05:25;20.00;63.30
3330;DHT22;1677;49.576;10.990;2023-04-10T08:07:51;19.90;63.10
3330;DHT22;1677;49.576;10.990;2023-04-10T08:10:16;20.70;60.90
3330;DHT22;1677;49.576;10.990;2023-04-10T08:12:42;22.00;59.70
3330;DHT22;1677;49.576;10.990;2023-04-10T08:15:08;21.90;56.90
3330;DHT22;1677;49.576;10.990;2023-04-10T08:17:34;22.40;55.90
3330;DHT22;1677;49.576;10.990;2023-04-10T08:19:59;21.30;56.10
3330;DHT22;1677;49.576;10.990;2023-04-10T08:22:25;21.70;56.90
3330;DHT22;1677;49.576;10.990;2023-04-10T08:24:50;22.30;55.10
3330;DHT22;1677;49.576;10.990;2023-04-10T08:27:16;21.90;54.10
3330;DHT22;1677;49.576;10.990;2023-04-10T08:29:42;21.30;55.20
3330;DHT22;1677;49.576;10.990;2023-04-10T08:32:07;21.70;54.40
3330;DHT22;1677;49.576;10.990;2023-04-10T08:34:33;21.70;54.60
3330;DHT22;1677;49.576;10.990;2023-04-10T08:36:59;21.80;52.80
3330;DHT22;1677;49.576;10.990;2023-04-10T08:39:25;21.10;53.70
3330;DHT22;1677;49.576;10.990;2023-04-10T08:41:50;20.80;54.30
3330;DHT22;1677;49.576;10.990;2023-04-10T08:44:16;21.30;54.10
3330;DHT22;1677;49.576;10.990;2023-04-10T08:46:43;22.00;52.30
3330;DHT22;1677;49.576;10.990;2023-04-10T08:49:31;22.80;50.90
3330;DHT22;1677;49.576;10.990;2023-04-10T08:52:06;22.30;48.50
3330;DHT22;1677;49.576;10.990;2023-04-10T08:54:34;21.30;51.30
3330;DHT22;1677;49.576;10.990;2023-04-10T08:57:00;22.00;50.00
3330;DHT22;1677;49.576;10.990;2023-04-10T08:59:29;23.30;51.20
3330;DHT22;1677;49.576;10.990;2023-04-10T09:01:55;23.80;46.30
3330;DHT22;1677;49.576;10.990;2023-04-10T09:04:25;23.20;46.20
3330;DHT22;1677;49.576;10.990;2023-04-10T09:06:52;23.20;44.30
3330;DHT22;1677;49.576;10.990;2023-04-10T09:09:17;23.40;43.80
3330;DHT22;1677;49.576;10.990;2023-04-10T09:14:28;24.50;42.00
3330;DHT22;1677;49.576;10.990;2023-04-10T09:19:42;23.20;43.00
3330;DHT22;1677;49.576;10.990;2023-04-10T09:22:08;22.90;43.80
3330;DHT22;1677;49.576;10.990;2023-04-10T09:24:37;24.80;42.40
3330;DHT22;1677;49.576;10.990;2023-04-10T09:27:04;24.60;40.10
3330;DHT22;1677;49.576;10.990;2023-04-10T09:29:44;23.60;40.10
3330;DHT22;1677;49.576;10.990;2023-04-10T09:32:12;23.60;42.70
3330;DHT22;1677;49.576;10.990;2023-04-10T09:34:57;23.70;41.00
3330;DHT22;1677;49.576;10.990;2023-04-10T09:37:33;23.90;40.00
3330;DHT22;1677;49.576;10.990;2023-04-10T09:39:59;23.50;41.10
3330;DHT22;1677;49.576;10.990;2023-04-10T09:42:32;23.60;41.30
3330;DHT22;1677;49.576;10.990;2023-04-10T09:44:59;24.30;39.50
3330;DHT22;1677;49.576;10.990;2023-04-10T09:47:26;23.00;40.40
3330;DHT22;1677;49.576;10.990;2023-04-10T09:49:53;23.00;40.90
3330;DHT22;1677;49.576;10.990;2023-04-10T09:52:24;21.90;41.60
3330;DHT22;1677;49.576;10.990;2023-04-10T09:54:56;22.50;42.10
3330;DHT22;1677;49.576;10.990;2023-04-10T09:57:24;22.50;41.60
3330;DHT22;1677;49.576;10.990;2023-04-10T09:59:52;23.50;41.40
3330;DHT22;1677;49.576;10.990;2023-04-10T10:02:19;23.60;40.40
3330;DHT22;1677;49.576;10.990;2023-04-10T10:04:46;23.60;40.90
3330;DHT22;1677;49.576;10.990;2023-04-10T10:07:16;24.40;40.40
3330;DHT22;1677;49.576;10.990;2023-04-10T10:09:44;25.80;36.60
3330;DHT22;1677;49.576;10.990;2023-04-10T10:12:11;25.70;36.90
3330;DHT22;1677;49.576;10.990;2023-04-10T10:14:52;25.60;35.80
3330;DHT22;1677;49.576;10.990;2023-04-10T10:17:19;25.00;36.40
3330;DHT22;1677;49.576;10.990;2023-04-10T10:22:26;25.80;34.90
3330;DHT22;1677;49.576;10.990;2023-04-10T10:24:53;25.10;34.20
3330;DHT22;1677;49.576;10.990;2023-04-10T10:27:22;24.20;36.00
3330;DHT22;1677;49.576;10.990;2023-04-10T10:29:49;25.30;36.30
3330;DHT22;1677;49.576;10.990;2023-04-10T10:32:17;24.90;35.10
3330;DHT22;1677;49.576;10.990;2023-04-10T10:34:43;24.90;35.60
3330;DHT22;1677;49.576;10.990;2023-04-10T10:37:10;24.80;35.20
3330;DHT22;1677;49.576;10.990;2023-04-10T10:42:35;25.20;33.20
3330;DHT22;1677;49.576;10.990;2023-04-10T10:45:12;25.60;34.30
3330;DHT22;1677;49.576;10.990;2023-04-10T10:47:44;27.20;32.90
3330;DHT22;1677;49.576;10.990;2023-04-10T10:50:11;26.60;31.50
3330;DHT22;1677;49.576;10.990;2023-04-10T10:52:38;26.70;31.90
3330;DHT22;1677;49.576;10.990;2023-04-10T10:58:08;25.30;32.10
3330;DHT22;1677;49.576;10.990;2023-04-10T11:05:59;24.20;32.90
3330;DHT22;1677;49.576;10.990;2023-04-10T11:11:04;24.00;33.70
3330;DHT22;1677;49.576;10.990;2023-04-10T11:13:31;23.50;33.60
3330;DHT22;1677;49.576;10.990;2023-04-10T11:15:57;24.80;33.70
3330;DHT22;1677;49.576;10.990;2023-04-10T11:26:35;26.40;30.00
3330;DHT22;1677;49.576;10.990;2023-04-10T11:32:05;26.70;28.70
3330;DHT22;1677;49.576;10.990;2023-04-10T11:34:30;26.70;30.70
3330;DHT22;1677;49.576;10.990;2023-04-10T11:36:58;27.70;28.20
3330;DHT22;1677;49.576;10.990;2023-04-10T11:39:25;26.70;29.50
3330;DHT22;1677;49.576;10.990;2023-04-10T11:41:53;27.00;28.60
3330;DHT22;1677;49.576;10.990;2023-04-10T11:44:32;26.70;27.70
3330;DHT22;1677;49.576;10.990;2023-04-10T11:47:00;25.40;28.80
3330;DHT22;1677;49.576;10.990;2023-04-10T11:49:30;24.90;29.60
3330;DHT22;1677;49.576;10.990;2023-04-10T11:51:56;24.60;30.00
3330;DHT22;1677;49.576;10.990;2023-04-10T11:54:25;25.40;29.90
3330;DHT22;1677;49.576;10.990;2023-04-10T11:59:23;24.10;31.60
3330;DHT22;1677;49.576;10.990;2023-04-10T12:01:50;22.60;32.90
3330;DHT22;1677;49.576;10.990;2023-04-10T12:04:19;22.20;33.30
3330;DHT22;1677;49.576;10.990;2023-04-10T12:06:46;22.00;34.50
3330;DHT22;1677;49.576;10.990;2023-04-10T12:09:14;21.40;35.10
3330;DHT22;1677;49.576;10.990;2023-04-10T12:11:51;21.30;35.30
3330;DHT22;1677;49.576;10.990;2023-04-10T12:14:17;20.90;36.70
3330;DHT22;1677;49.576;10.990;2023-04-10T12:16:44;20.70;35.70
3330;DHT22;1677;49.576;10.990;2023-04-10T12:19:10;20.60;35.60
3330;DHT22;1677;49.576;10.990;2023-04-10T12:21:36;20.30;38.00
3330;DHT22;1677;49.576;10.990;2023-04-10T12:24:04;20.20;36.90
3330;DHT22;1677;49.576;10.990;2023-04-10T12:26:29;19.70;37.70
3330;DHT22;1677;49.576;10.990;2023-04-10T12:28:56;19.40;38.20
3330;DHT22;1677;49.576;10.990;2023-04-10T12:31:33;19.40;38.60
3330;DHT22;1677;49.576;10.990;2023-04-10T12:34:00;19.50;38.00
3330;DHT22;1677;49.576;10.990;2023-04-10T12:36:27;19.40;38.70
3330;DHT22;1677;49.576;10.990;2023-04-10T12:38:55;18.80;39.40
3330;DHT22;1677;49.576;10.990;2023-04-10T12:41:25;18.80;39.90
3330;DHT22;1677;49.576;10.990;2023-04-10T12:43:53;18.80;39.90
3330;DHT22;1677;49.576;10.990;2023-04-10T12:46:31;18.80;39.50
3330;DHT22;1677;49.576;10.990;2023-04-10T12:49:11;18.50;39.40
3330;DHT22;1677;49.576;10.990;2023-04-10T12:51:51;18.70;39.60
3330;DHT22;1677;49.576;10.990;2023-04-10T12:54:30;19.20;40.10
3330;DHT22;1677;49.576;10.990;2023-04-10T12:56:56;19.10;39.10
3330;DHT22;1677;49.576;10.990;2023-04-10T12:59:23;18.80;39.80
3330;DHT22;1677;49.576;10.990;2023-04-10T13:01:48;19.10;40.00
3330;DHT22;1677;49.576;10.990;2023-04-10T13:04:14;19.30;39.00
3330;DHT22;1677;49.576;10.990;2023-04-10T13:06:45;19.10;38.50
3330;DHT22;1677;49.576;10.990;2023-04-10T13:09:14;18.90;39.10
3330;DHT22;1677;49.576;10.990;2023-04-10T13:11:40;19.20;39.70
3330;DHT22;1677;49.576;10.990;2023-04-10T13:14:07;19.40;38.90
3330;DHT22;1677;49.576;10.990;2023-04-10T13:16:32;19.60;38.20
3330;DHT22;1677;49.576;10.990;2023-04-10T13:18:58;19.40;38.60
3330;DHT22;1677;49.576;10.990;2023-04-10T13:21:24;19.00;39.50
3330;DHT22;1677;49.576;10.990;2023-04-10T13:23:56;19.30;40.40
3330;DHT22;1677;49.576;10.990;2023-04-10T13:26:23;19.00;38.60
3330;DHT22;1677;49.576;10.990;2023-04-10T13:28:48;18.70;39.80
3330;DHT22;1677;49.576;10.990;2023-04-10T13:31:14;18.90;39.90
3330;DHT22;1677;49.576;10.990;2023-04-10T13:33:42;18.80;40.00
3330;DHT22;1677;49.576;10.990;2023-04-10T13:36:08;18.90;40.40
3330;DHT22;1677;49.576;10.990;2023-04-10T13:38:33;18.70;39.50
3330;DHT22;1677;49.576;10.990;2023-04-10T13:40:59;18.60;40.70
3330;DHT22;1677;49.576;10.990;2023-04-10T13:43:24;18.80;41.60
3330;DHT22;1677;49.576;10.990;2023-04-10T13:45:50;18.60;39.60
3330;DHT22;1677;49.576;10.990;2023-04-10T13:48:15;18.60;40.30
3330;DHT22;1677;49.576;10.990;2023-04-10T13:50:45;18.70;39.60
3330;DHT22;1677;49.576;10.990;2023-04-10T13:53:10;18.50;39.50
3330;DHT22;1677;49.576;10.990;2023-04-10T13:55:36;18.50;40.00
3330;DHT22;1677;49.576;10.990;2023-04-10T13:58:03;18.60;41.50
3330;DHT22;1677;49.576;10.990;2023-04-10T14:00:28;18.70;40.70
3330;DHT22;1677;49.576;10.990;2023-04-10T14:02:54;18.60;39.40
3330;DHT22;1677;49.576;10.990;2023-04-10T14:05:19;18.40;40.30
3330;DHT22;1677;49.576;10.990;2023-04-10T14:07:45;18.50;40.00
3330;DHT22;1677;49.576;10.990;2023-04-10T14:10:11;18.50;39.70
3330;DHT22;1677;49.576;10.990;2023-04-10T14:12:36;18.60;40.70
3330;DHT22;1677;49.576;10.990;2023-04-10T14:15:02;18.60;39.40
3330;DHT22;1677;49.576;10.990;2023-04-10T14:17:28;18.30;40.90
3330;DHT22;1677;49.576;10.990;2023-04-10T14:19:53;18.20;40.60
3330;DHT22;1677;49.576;10.990;2023-04-10T14:22:19;17.90;40.50
3330;DHT22;1677;49.576;10.990;2023-04-10T14:24:45;17.90;40.30
3330;DHT22;1677;49.576;10.990;2023-04-10T14:27:11;17.90;39.60
3330;DHT22;1677;49.576;10.990;2023-04-10T14:29:36;18.00;40.90
3330;DHT22;1677;49.576;10.990;2023-04-10T14:32:02;17.80;39.10
3330;DHT22;1677;49.576;10.990;2023-04-10T14:34:27;17.70;40.00
3330;DHT22;1677;49.576;10.990;2023-04-10T14:36:53;17.60;40.50
3330;DHT22;1677;49.576;10.990;2023-04-10T14:39:22;17.60;40.10
3330;DHT22;1677;49.576;10.990;2023-04-10T14:41:47;17.50;40.00
3330;DHT22;1677;49.576;10.990;2023-04-10T14:44:13;17.40;40.40
3330;DHT22;1677;49.576;10.990;2023-04-10T14:46:38;17.30;40.90
3330;DHT22;1677;49.576;10.990;2023-04-10T14:49:04;17.30;41.00
3330;DHT22;1677;49.576;10.990;2023-04-10T14:51:30;17.20;39.70
3330;DHT22;1677;49.576;10.990;2023-04-10T14:53:56;17.30;40.30
3330;DHT22;1677;49.576;10.990;2023-04-10T14:56:21;17.60;40.30
3330;DHT22;1677;49.576;10.990;2023-04-10T14:58:47;17.70;40.10
3330;DHT22;1677;49.576;10.990;2023-04-10T15:01:12;17.70;39.70
3330;DHT22;1677;49.576;10.990;2023-04-10T15:03:38;17.50;40.10
3330;DHT22;1677;49.576;10.990;2023-04-10T15:06:04;17.30;40.30
3330;DHT22;1677;49.576;10.990;2023-04-10T15:08:30;17.10;39.80
3330;DHT22;1677;49.576;10.990;2023-04-10T15:10:55;17.00;41.00
3330;DHT22;1677;49.576;10.990;2023-04-10T15:13:21;17.20;40.40
3330;DHT22;1677;49.576;10.990;2023-04-10T15:15:47;17.30;39.80
3330;DHT22;1677;49.576;10.990;2023-04-10T15:18:14;17.40;39.90
3330;DHT22;1677;49.576;10.990;2023-04-10T15:20:40;17.50;39.50
3330;DHT22;1677;49.576;10.990;2023-04-10T15:23:05;17.60;40.30
3330;DHT22;1677;49.576;10.990;2023-04-10T15:25:32;17.50;40.50
3330;DHT22;1677;49.576;10.990;2023-04-10T15:27:58;17.50;41.40
3330;DHT22;1677;49.576;10.990;2023-04-10T15:30:24;17.40;40.60
3330;DHT22;1677;49.576;10.990;2023-04-10T15:32:49;17.30;39.80
3330;DHT22;1677;49.576;10.990;2023-04-10T15:35:15;17.20;40.90
3330;DHT22;1677;49.576;10.990;2023-04-10T15:37:41;17.00;41.60
3330;DHT22;1677;49.576;10.990;2023-04-10T15:40:07;17.00;42.30
3330;DHT22;1677;49.576;10.990;2023-04-10T15:42:33;17.00;43.10
3330;DHT22;1677;49.576;10.990;2023-04-10T15:44:59;16.80;43.10
3330;DHT22;1677;49.576;10.990;2023-04-10T15:47:25;16.80;43.40
3330;DHT22;1677;49.576;10.990;2023-04-10T15:49:51;16.80;43.30
3330;DHT22;1677;49.576;10.990;2023-04-10T15:52:17;16.80;43.50
3330;DHT22;1677;49.576;10.990;2023-04-10T15:54:42;16.80;43.60
3330;DHT22;1677;49.576;10.990;2023-04-10T15:57:08;16.80;42.80
3330;DHT22;1677;49.576;10.990;2023-04-10T15:59:34;16.80;42.50
3330;DHT22;1677;49.576;10.990;2023-04-10T16:02:00;16.70;43.20
3330;DHT22;1677;49.576;10.990;2023-04-10T16:04:26;16.80;43.90
3330;DHT22;1677;49.576;10.990;2023-04-10T16:06:51;16.50;43.80
3330;DHT22;1677;49.576;10.990;2023-04-10T16:09:17;16.30;43.80
3330;DHT22;1677;49.576;10.990;2023-04-10T16:11:42;16.40;44.10
3330;DHT22;1677;49.576;10.990;2023-04-10T16:14:08;16.40;44.40
3330;DHT22;1677;49.576;10.990;2023-04-10T16:16:34;16.30;44.70
3330;DHT22;1677;49.576;10.990;2023-04-10T16:18:59;16.20;45.00
3330;DHT22;1677;49.576;10.990;2023-04-10T16:21:25;16.20;45.10
3330;DHT22;1677;49.576;10.990;2023-04-10T16:23:51;16.10;45.00
3330;DHT22;1677;49.576;10.990;2023-04-10T16:26:17;16.00;45.20
3330;DHT22;1677;49.576;10.990;2023-04-10T16:28:43;16.00;45.70
3330;DHT22;1677;49.576;10.990;2023-04-10T16:31:09;16.00;45.70
3330;DHT22;1677;49.576;10.990;2023-04-10T16:33:35;15.80;46.00
3330;DHT22;1677;49.576;10.990;2023-04-10T16:36:00;15.70;46.60
3330;DHT22;1677;49.576;10.990;2023-04-10T16:38:29;15.70;47.20